sensor_id;sensor_type;location;lat;lon;timestamp;pressure;altitude;pressure_sealevel;temperature
74321;BMP280;62738;45.772;4.804;2023-02-26T00:01:12;98662.81;;;5.04
74321;BMP280;62738;45.772;4.804;2023-02-26T00:03:39;98655.50;;;5.14
74321;BMP280;62738;45.772;4.804;2023-02-26T00:06:07;98651.28;;;5.05
74321;BMP280;62738;45.772;4.804;2023-02-26T00:08:34;98660.78;;;4.97
74321;BMP280;62738;45.772;4.804;2023-02-26T00:11:05;98657.72;;;5.08
74321;BMP280;62738;45.772;4.804;2023-02-26T00:13:33;98655.66;;;4.85
74321;BMP280;62738;45.772;4.804;2023-02-26T00:16:01;98665.56;;;4.88
74321;BMP280;62738;45.772;4.804;2023-02-26T00:18:28;98669.00;;;4.81
74321;BMP280;62738;45.772;4.804;2023-02-26T00:20:54;98667.75;;;4.82
74321;BMP280;62738;45.772;4.804;2023-02-26T00:23:21;98660.38;;;4.77
74321;BMP280;62738;45.772;4.804;2023-02-26T00:25:49;98658.97;;;4.91
74321;BMP280;62738;45.772;4.804;2023-02-26T00:28:16;98652.53;;;4.97
74321;BMP280;62738;45.772;4.804;2023-02-26T00:30:43;98647.25;;;5.06
74321;BMP280;62738;45.772;4.804;2023-02-26T00:33:10;98663.16;;;4.92
74321;BMP280;62738;45.772;4.804;2023-02-26T00:35:37;98656.03;;;4.89
74321;BMP280;62738;45.772;4.804;2023-02-26T00:38:09;98672.44;;;4.67
74321;BMP280;62738;45.772;4.804;2023-02-26T00:43:11;98667.56;;;4.96
74321;BMP280;62738;45.772;4.804;2023-02-26T00:45:44;98678.56;;;4.88
74321;BMP280;62738;45.772;4.804;2023-02-26T00:48:29;98658.63;;;5.03
74321;BMP280;62738;45.772;4.804;2023-02-26T00:51:04;98683.28;;;4.72
74321;BMP280;62738;45.772;4.804;2023-02-26T00:53:42;98672.41;;;4.59
74321;BMP280;62738;45.772;4.804;2023-02-26T00:56:10;98687.25;;;4.56
74321;BMP280;62738;45.772;4.804;2023-02-26T00:58:36;98703.91;;;4.50
74321;BMP280;62738;45.772;4.804;2023-02-26T01:01:03;98667.47;;;4.50
74321;BMP280;62738;45.772;4.804;2023-02-26T01:03:31;98676.09;;;4.62
74321;BMP280;62738;45.772;4.804;2023-02-26T01:05:58;98672.78;;;4.63
74321;BMP280;62738;45.772;4.804;2023-02-26T01:08:36;98675.00;;;4.65
74321;BMP280;62738;45.772;4.804;2023-02-26T01:11:06;98680.88;;;4.69
74321;BMP280;62738;45.772;4.804;2023-02-26T01:13:33;98682.84;;;4.61
74321;BMP280;62738;45.772;4.804;2023-02-26T01:16:04;98711.41;;;4.57
74321;BMP280;62738;45.772;4.804;2023-02-26T01:18:47;98686.72;;;4.65
74321;BMP280;62738;45.772;4.804;2023-02-26T01:21:22;98668.44;;;4.68
74321;BMP280;62738;45.772;4.804;2023-02-26T01:23:51;98676.81;;;4.62
74321;BMP280;62738;45.772;4.804;2023-02-26T01:26:22;98690.19;;;4.66
74321;BMP280;62738;45.772;4.804;2023-02-26T01:28:49;98675.03;;;4.72
74321;BMP280;62738;45.772;4.804;2023-02-26T01:34:17;98669.88;;;4.53
74321;BMP280;62738;45.772;4.804;2023-02-26T01:37:20;98674.03;;;4.47
74321;BMP280;62738;45.772;4.804;2023-02-26T01:42:50;98698.69;;;4.39
74321;BMP280;62738;45.772;4.804;2023-02-26T01:45:28;98689.34;;;4.27
74321;BMP280;62738;45.772;4.804;2023-02-26T01:48:05;98675.19;;;4.15
74321;BMP280;62738;45.772;4.804;2023-02-26T01:50:35;98658.41;;;4.34
74321;BMP280;62738;45.772;4.804;2023-02-26T01:53:19;98683.59;;;4.17
74321;BMP280;62738;45.772;4.804;2023-02-26T01:55:49;98680.69;;;4.23
74321;BMP280;62738;45.772;4.804;2023-02-26T01:58:19;98662.41;;;4.26
74321;BMP280;62738;45.772;4.804;2023-02-26T02:03:23;98671.22;;;4.32
74321;BMP280;62738;45.772;4.804;2023-02-26T02:05:55;98650.81;;;4.12
74321;BMP280;62738;45.772;4.804;2023-02-26T02:08:23;98646.22;;;4.07
74321;BMP280;62738;45.772;4.804;2023-02-26T02:10:50;98654.44;;;4.07
74321;BMP280;62738;45.772;4.804;2023-02-26T02:16:31;98645.69;;;4.08
74321;BMP280;62738;45.772;4.804;2023-02-26T02:33:20;98663.22;;;3.77
74321;BMP280;62738;45.772;4.804;2023-02-26T02:36:05;98657.13;;;3.92
74321;BMP280;62738;45.772;4.804;2023-02-26T02:38:47;98649.69;;;4.07
74321;BMP280;62738;45.772;4.804;2023-02-26T02:41:25;98649.31;;;3.75
74321;BMP280;62738;45.772;4.804;2023-02-26T02:43:53;98645.97;;;3.69
74321;BMP280;62738;45.772;4.804;2023-02-26T02:46:24;98678.53;;;3.65
74321;BMP280;62738;45.772;4.804;2023-02-26T02:49:06;98659.44;;;3.59
74321;BMP280;62738;45.772;4.804;2023-02-26T02:54:15;98644.88;;;3.64
74321;BMP280;62738;45.772;4.804;2023-02-26T02:56:52;98656.31;;;3.83
74321;BMP280;62738;45.772;4.804;2023-02-26T02:59:21;98671.75;;;3.66
74321;BMP280;62738;45.772;4.804;2023-02-26T03:01:54;98662.97;;;3.67
74321;BMP280;62738;45.772;4.804;2023-02-26T03:04:23;98665.34;;;3.63
74321;BMP280;62738;45.772;4.804;2023-02-26T03:06:50;98677.41;;;3.68
74321;BMP280;62738;45.772;4.804;2023-02-26T03:09:17;98677.78;;;3.64
74321;BMP280;62738;45.772;4.804;2023-02-26T03:11:44;98675.16;;;3.59
74321;BMP280;62738;45.772;4.804;2023-02-26T03:14:11;98683.09;;;3.70
74321;BMP280;62738;45.772;4.804;2023-02-26T03:17:08;98677.19;;;3.58
74321;BMP280;62738;45.772;4.804;2023-02-26T03:19:53;98663.47;;;3.58
74321;BMP280;62738;45.772;4.804;2023-02-26T03:30:45;98679.91;;;3.58
74321;BMP280;62738;45.772;4.804;2023-02-26T03:33:18;98683.41;;;3.59
74321;BMP280;62738;45.772;4.804;2023-02-26T03:38:28;98677.84;;;3.30
74321;BMP280;62738;45.772;4.804;2023-02-26T03:41:03;98673.16;;;3.59
74321;BMP280;62738;45.772;4.804;2023-02-26T03:43:36;98682.78;;;3.53
74321;BMP280;62738;45.772;4.804;2023-02-26T03:46:06;98684.94;;;3.46
74321;BMP280;62738;45.772;4.804;2023-02-26T03:48:35;98684.22;;;3.74
74321;BMP280;62738;45.772;4.804;2023-02-26T03:51:09;98673.38;;;3.40
74321;BMP280;62738;45.772;4.804;2023-02-26T03:54:16;98687.69;;;3.46
74321;BMP280;62738;45.772;4.804;2023-02-26T03:56:39;98687.53;;;3.52
74321;BMP280;62738;45.772;4.804;2023-02-26T03:59:07;98688.38;;;3.68
74321;BMP280;62738;45.772;4.804;2023-02-26T04:01:48;98672.16;;;3.49
74321;BMP280;62738;45.772;4.804;2023-02-26T04:04:27;98688.41;;;3.26
74321;BMP280;62738;45.772;4.804;2023-02-26T04:06:55;98706.22;;;3.33
74321;BMP280;62738;45.772;4.804;2023-02-26T04:09:22;98697.31;;;3.40
74321;BMP280;62738;45.772;4.804;2023-02-26T04:11:50;98715.16;;;3.33
74321;BMP280;62738;45.772;4.804;2023-02-26T04:14:18;98698.63;;;3.05
74321;BMP280;62738;45.772;4.804;2023-02-26T04:16:45;98707.97;;;3.09
74321;BMP280;62738;45.772;4.804;2023-02-26T04:19:12;98691.00;;;3.11
74321;BMP280;62738;45.772;4.804;2023-02-26T04:21:39;98704.97;;;3.00
74321;BMP280;62738;45.772;4.804;2023-02-26T04:24:06;98691.16;;;3.26
74321;BMP280;62738;45.772;4.804;2023-02-26T04:26:32;98697.59;;;2.95
74321;BMP280;62738;45.772;4.804;2023-02-26T04:28:59;98702.22;;;3.00
74321;BMP280;62738;45.772;4.804;2023-02-26T04:31:26;98713.94;;;2.87
74321;BMP280;62738;45.772;4.804;2023-02-26T04:33:53;98703.69;;;3.01
74321;BMP280;62738;45.772;4.804;2023-02-26T04:36:20;98706.69;;;3.10
74321;BMP280;62738;45.772;4.804;2023-02-26T04:38:46;98704.38;;;2.81
74321;BMP280;62738;45.772;4.804;2023-02-26T04:41:13;98703.19;;;2.89
74321;BMP280;62738;45.772;4.804;2023-02-26T04:43:40;98703.63;;;2.93
74321;BMP280;62738;45.772;4.804;2023-02-26T04:46:07;98691.31;;;2.87
74321;BMP280;62738;45.772;4.804;2023-02-26T04:48:33;98685.09;;;2.86
74321;BMP280;62738;45.772;4.804;2023-02-26T04:51:00;98695.63;;;2.82
74321;BMP280;62738;45.772;4.804;2023-02-26T04:53:27;98683.13;;;2.73
74321;BMP280;62738;45.772;4.804;2023-02-26T04:55:53;98691.75;;;2.64
74321;BMP280;62738;45.772;4.804;2023-02-26T04:58:20;98685.03;;;2.65
74321;BMP280;62738;45.772;4.804;2023-02-26T05:00:49;98676.28;;;2.67
74321;BMP280;62738;45.772;4.804;2023-02-26T05:03:16;98683.38;;;2.49
74321;BMP280;62738;45.772;4.804;2023-02-26T05:05:43;98677.16;;;2.49
74321;BMP280;62738;45.772;4.804;2023-02-26T05:08:10;98675.16;;;2.49
74321;BMP280;62738;45.772;4.804;2023-02-26T05:10:37;98704.00;;;2.50
74321;BMP280;62738;45.772;4.804;2023-02-26T05:13:04;98693.16;;;2.45
74321;BMP280;62738;45.772;4.804;2023-02-26T05:15:31;98671.94;;;2.24
74321;BMP280;62738;45.772;4.804;2023-02-26T05:17:58;98698.97;;;2.41
74321;BMP280;62738;45.772;4.804;2023-02-26T05:20:24;98674.72;;;2.45
74321;BMP280;62738;45.772;4.804;2023-02-26T05:22:51;98688.78;;;2.28
74321;BMP280;62738;45.772;4.804;2023-02-26T05:25:19;98726.88;;;2.26
74321;BMP280;62738;45.772;4.804;2023-02-26T05:27:45;98694.78;;;2.27
74321;BMP280;62738;45.772;4.804;2023-02-26T05:30:14;98732.44;;;2.08
74321;BMP280;62738;45.772;4.804;2023-02-26T05:32:42;98710.75;;;2.10
74321;BMP280;62738;45.772;4.804;2023-02-26T05:35:09;98712.03;;;2.09
74321;BMP280;62738;45.772;4.804;2023-02-26T05:37:37;98716.97;;;2.10
74321;BMP280;62738;45.772;4.804;2023-02-26T05:40:04;98691.19;;;2.19
74321;BMP280;62738;45.772;4.804;2023-02-26T05:42:32;98722.22;;;2.21
74321;BMP280;62738;45.772;4.804;2023-02-26T05:44:58;98722.13;;;2.14
74321;BMP280;62738;45.772;4.804;2023-02-26T05:47:25;98735.47;;;2.04
74321;BMP280;62738;45.772;4.804;2023-02-26T05:49:52;98714.94;;;1.97
74321;BMP280;62738;45.772;4.804;2023-02-26T05:52:19;98733.25;;;2.16
74321;BMP280;62738;45.772;4.804;2023-02-26T05:54:45;98751.22;;;1.98
74321;BMP280;62738;45.772;4.804;2023-02-26T05:57:12;98729.44;;;1.92
74321;BMP280;62738;45.772;4.804;2023-02-26T05:59:39;98719.66;;;1.84
74321;BMP280;62738;45.772;4.804;2023-02-26T06:02:06;98723.13;;;1.84
74321;BMP280;62738;45.772;4.804;2023-02-26T06:04:33;98718.31;;;2.03
74321;BMP280;62738;45.772;4.804;2023-02-26T06:07:00;98712.41;;;1.99
74321;BMP280;62738;45.772;4.804;2023-02-26T06:09:27;98712.06;;;1.90
74321;BMP280;62738;45.772;4.804;2023-02-26T06:11:53;98706.66;;;2.03
74321;BMP280;62738;45.772;4.804;2023-02-26T06:14:20;98717.84;;;1.73
74321;BMP280;62738;45.772;4.804;2023-02-26T06:16:47;98715.84;;;1.87
74321;BMP280;62738;45.772;4.804;2023-02-26T06:19:13;98710.22;;;1.98
74321;BMP280;62738;45.772;4.804;2023-02-26T06:21:40;98713.22;;;1.68
74321;BMP280;62738;45.772;4.804;2023-02-26T06:24:07;98713.66;;;1.72
74321;BMP280;62738;45.772;4.804;2023-02-26T06:26:33;98708.41;;;1.74
74321;BMP280;62738;45.772;4.804;2023-02-26T06:29:00;98702.31;;;1.81
74321;BMP280;62738;45.772;4.804;2023-02-26T06:31:27;98703.97;;;1.71
74321;BMP280;62738;45.772;4.804;2023-02-26T06:33:54;98722.16;;;1.68
74321;BMP280;62738;45.772;4.804;2023-02-26T06:36:21;98773.66;;;1.64
74321;BMP280;62738;45.772;4.804;2023-02-26T06:38:47;98715.84;;;1.74
74321;BMP280;62738;45.772;4.804;2023-02-26T06:41:14;98737.06;;;1.67
74321;BMP280;62738;45.772;4.804;2023-02-26T06:43:41;98735.75;;;1.55
74321;BMP280;62738;45.772;4.804;2023-02-26T06:46:07;98733.97;;;1.58
74321;BMP280;62738;45.772;4.804;2023-02-26T06:48:34;98747.13;;;1.59
74321;BMP280;62738;45.772;4.804;2023-02-26T06:51:01;98806.69;;;1.48
74321;BMP280;62738;45.772;4.804;2023-02-26T06:53:28;98742.41;;;1.60
74321;BMP280;62738;45.772;4.804;2023-02-26T06:55:54;98739.56;;;1.52
74321;BMP280;62738;45.772;4.804;2023-02-26T06:58:21;98760.56;;;1.57
74321;BMP280;62738;45.772;4.804;2023-02-26T07:00:48;98724.53;;;1.59
74321;BMP280;62738;45.772;4.804;2023-02-26T07:03:16;98715.22;;;1.67
74321;BMP280;62738;45.772;4.804;2023-02-26T07:05:44;98774.44;;;1.78
74321;BMP280;62738;45.772;4.804;2023-02-26T07:08:11;98731.03;;;1.56
74321;BMP280;62738;45.772;4.804;2023-02-26T07:10:39;98760.56;;;1.76
74321;BMP280;62738;45.772;4.804;2023-02-26T07:13:06;98753.75;;;1.96
74321;BMP280;62738;45.772;4.804;2023-02-26T07:15:33;98757.91;;;1.70
74321;BMP280;62738;45.772;4.804;2023-02-26T07:18:00;98741.09;;;1.93
74321;BMP280;62738;45.772;4.804;2023-02-26T07:20:27;98757.16;;;1.70
74321;BMP280;62738;45.772;4.804;2023-02-26T07:22:55;98765.63;;;1.98
74321;BMP280;62738;45.772;4.804;2023-02-26T07:25:22;98729.00;;;1.88
74321;BMP280;62738;45.772;4.804;2023-02-26T07:27:50;98728.75;;;2.05
74321;BMP280;62738;45.772;4.804;2023-02-26T07:30:17;98754.28;;;1.81
74321;BMP280;62738;45.772;4.804;2023-02-26T07:32:44;98733.88;;;1.95
74321;BMP280;62738;45.772;4.804;2023-02-26T07:35:10;98783.59;;;1.81
74321;BMP280;62738;45.772;4.804;2023-02-26T07:37:37;98751.75;;;1.83
74321;BMP280;62738;45.772;4.804;2023-02-26T07:40:04;98777.16;;;2.10
74321;BMP280;62738;45.772;4.804;2023-02-26T07:42:31;98774.59;;;1.99
74321;BMP280;62738;45.772;4.804;2023-02-26T07:44:57;98798.63;;;1.87
74321;BMP280;62738;45.772;4.804;2023-02-26T07:47:25;98769.50;;;1.90
74321;BMP280;62738;45.772;4.804;2023-02-26T07:49:52;98802.38;;;1.71
74321;BMP280;62738;45.772;4.804;2023-02-26T07:52:19;98786.19;;;2.05
74321;BMP280;62738;45.772;4.804;2023-02-26T07:54:45;98799.03;;;2.10
74321;BMP280;62738;45.772;4.804;2023-02-26T07:57:12;98787.97;;;2.02
74321;BMP280;62738;45.772;4.804;2023-02-26T07:59:38;98763.84;;;2.01
74321;BMP280;62738;45.772;4.804;2023-02-26T08:02:06;98761.47;;;2.37
74321;BMP280;62738;45.772;4.804;2023-02-26T08:04:32;98799.44;;;2.14
74321;BMP280;62738;45.772;4.804;2023-02-26T08:06:59;98743.50;;;2.28
74321;BMP280;62738;45.772;4.804;2023-02-26T08:09:27;98752.53;;;2.10
74321;BMP280;62738;45.772;4.804;2023-02-26T08:11:53;98742.53;;;2.13
74321;BMP280;62738;45.772;4.804;2023-02-26T08:14:20;98741.28;;;2.14
74321;BMP280;62738;45.772;4.804;2023-02-26T08:16:47;98716.22;;;2.10
74321;BMP280;62738;45.772;4.804;2023-02-26T08:19:14;98707.38;;;2.17
74321;BMP280;62738;45.772;4.804;2023-02-26T08:21:40;98720.13;;;2.27
74321;BMP280;62738;45.772;4.804;2023-02-26T08:24:07;98703.91;;;2.16
74321;BMP280;62738;45.772;4.804;2023-02-26T08:26:35;98706.84;;;2.18
74321;BMP280;62738;45.772;4.804;2023-02-26T08:29:03;98707.47;;;1.98
74321;BMP280;62738;45.772;4.804;2023-02-26T08:31:30;98709.94;;;2.28
74321;BMP280;62738;45.772;4.804;2023-02-26T08:33:57;98710.44;;;2.26
74321;BMP280;62738;45.772;4.804;2023-02-26T08:36:24;98699.19;;;2.17
74321;BMP280;62738;45.772;4.804;2023-02-26T08:38:52;98721.19;;;2.24
74321;BMP280;62738;45.772;4.804;2023-02-26T08:41:18;98704.84;;;2.32
74321;BMP280;62738;45.772;4.804;2023-02-26T08:43:45;98692.22;;;2.42
74321;BMP280;62738;45.772;4.804;2023-02-26T08:46:12;98717.69;;;2.50
74321;BMP280;62738;45.772;4.804;2023-02-26T08:48:38;98706.31;;;2.59
74321;BMP280;62738;45.772;4.804;2023-02-26T08:51:05;98717.47;;;2.48
74321;BMP280;62738;45.772;4.804;2023-02-26T08:53:32;98720.44;;;2.50
74321;BMP280;62738;45.772;4.804;2023-02-26T08:55:58;98705.78;;;2.61
74321;BMP280;62738;45.772;4.804;2023-02-26T08:58:25;98701.38;;;2.45
74321;BMP280;62738;45.772;4.804;2023-02-26T09:00:52;98720.00;;;2.59
74321;BMP280;62738;45.772;4.804;2023-02-26T09:03:19;98729.97;;;2.83
74321;BMP280;62738;45.772;4.804;2023-02-26T09:05:45;98722.91;;;2.88
74321;BMP280;62738;45.772;4.804;2023-02-26T09:08:12;98763.88;;;2.80
74321;BMP280;62738;45.772;4.804;2023-02-26T09:10:42;98729.84;;;2.75
74321;BMP280;62738;45.772;4.804;2023-02-26T09:13:09;98750.69;;;3.05
74321;BMP280;62738;45.772;4.804;2023-02-26T09:15:35;98725.66;;;2.88
74321;BMP280;62738;45.772;4.804;2023-02-26T09:18:02;98746.56;;;2.98
74321;BMP280;62738;45.772;4.804;2023-02-26T09:20:29;98762.41;;;2.92
74321;BMP280;62738;45.772;4.804;2023-02-26T09:22:55;98739.34;;;2.88
74321;BMP280;62738;45.772;4.804;2023-02-26T09:25:22;98736.59;;;2.88
74321;BMP280;62738;45.772;4.804;2023-02-26T09:27:51;98745.44;;;2.94
74321;BMP280;62738;45.772;4.804;2023-02-26T09:30:17;98756.78;;;2.98
74321;BMP280;62738;45.772;4.804;2023-02-26T09:32:44;98759.28;;;3.09
74321;BMP280;62738;45.772;4.804;2023-02-26T09:35:11;98746.66;;;3.06
74321;BMP280;62738;45.772;4.804;2023-02-26T09:37:37;98763.97;;;2.88
74321;BMP280;62738;45.772;4.804;2023-02-26T09:40:06;98763.31;;;2.95
74321;BMP280;62738;45.772;4.804;2023-02-26T09:42:56;98709.22;;;2.88
74321;BMP280;62738;45.772;4.804;2023-02-26T09:45:35;98738.63;;;3.08
74321;BMP280;62738;45.772;4.804;2023-02-26T09:48:03;98746.63;;;3.40
74321;BMP280;62738;45.772;4.804;2023-02-26T09:50:45;98768.91;;;3.36
74321;BMP280;62738;45.772;4.804;2023-02-26T09:53:23;98758.75;;;3.10
74321;BMP280;62738;45.772;4.804;2023-02-26T09:55:54;98775.03;;;3.29
74321;BMP280;62738;45.772;4.804;2023-02-26T09:58:36;98781.28;;;3.30
74321;BMP280;62738;45.772;4.804;2023-02-26T10:01:22;98783.63;;;3.46
74321;BMP280;62738;45.772;4.804;2023-02-26T10:06:58;98781.97;;;3.43
74321;BMP280;62738;45.772;4.804;2023-02-26T10:12:07;98808.59;;;3.77
74321;BMP280;62738;45.772;4.804;2023-02-26T10:17:26;98801.91;;;3.86
74321;BMP280;62738;45.772;4.804;2023-02-26T10:20:00;98816.44;;;3.73
74321;BMP280;62738;45.772;4.804;2023-02-26T10:25:37;98809.81;;;3.89
74321;BMP280;62738;45.772;4.804;2023-02-26T10:28:24;98802.56;;;3.99
74321;BMP280;62738;45.772;4.804;2023-02-26T10:31:02;98823.09;;;4.06
74321;BMP280;62738;45.772;4.804;2023-02-26T10:33:56;98834.41;;;4.23
74321;BMP280;62738;45.772;4.804;2023-02-26T10:36:28;98804.63;;;4.06
74321;BMP280;62738;45.772;4.804;2023-02-26T10:39:11;98812.00;;;4.11
74321;BMP280;62738;45.772;4.804;2023-02-26T10:41:41;98785.88;;;4.18
74321;BMP280;62738;45.772;4.804;2023-02-26T10:49:54;98829.00;;;4.10
74321;BMP280;62738;45.772;4.804;2023-02-26T10:52:27;98816.88;;;4.26
74321;BMP280;62738;45.772;4.804;2023-02-26T10:58:02;98796.44;;;4.71
74321;BMP280;62738;45.772;4.804;2023-02-26T11:00:29;98829.38;;;4.35
74321;BMP280;62738;45.772;4.804;2023-02-26T11:02:57;98805.03;;;4.39
74321;BMP280;62738;45.772;4.804;2023-02-26T11:05:27;98792.78;;;4.40
74321;BMP280;62738;45.772;4.804;2023-02-26T11:08:10;98760.13;;;4.57
74321;BMP280;62738;45.772;4.804;2023-02-26T11:10:41;98789.97;;;4.61
74321;BMP280;62738;45.772;4.804;2023-02-26T11:13:10;98786.97;;;4.79
74321;BMP280;62738;45.772;4.804;2023-02-26T11:15:38;98791.69;;;4.71
74321;BMP280;62738;45.772;4.804;2023-02-26T11:18:11;98855.13;;;4.52
74321;BMP280;62738;45.772;4.804;2023-02-26T11:20:41;98786.34;;;4.37
74321;BMP280;62738;45.772;4.804;2023-02-26T11:23:17;98820.44;;;4.42
74321;BMP280;62738;45.772;4.804;2023-02-26T11:25:51;98801.50;;;4.31
74321;BMP280;62738;45.772;4.804;2023-02-26T11:28:29;98809.25;;;4.40
74321;BMP280;62738;45.772;4.804;2023-02-26T11:31:00;98796.53;;;4.50
74321;BMP280;62738;45.772;4.804;2023-02-26T11:33:34;98794.03;;;4.67
74321;BMP280;62738;45.772;4.804;2023-02-26T11:36:07;98841.22;;;4.86
74321;BMP280;62738;45.772;4.804;2023-02-26T11:38:35;98774.09;;;4.74
74321;BMP280;62738;45.772;4.804;2023-02-26T11:41:02;98777.63;;;4.82
74321;BMP280;62738;45.772;4.804;2023-02-26T11:43:39;98792.00;;;5.04
74321;BMP280;62738;45.772;4.804;2023-02-26T11:46:11;98790.53;;;5.03
74321;BMP280;62738;45.772;4.804;2023-02-26T11:48:41;98794.03;;;5.11
74321;BMP280;62738;45.772;4.804;2023-02-26T11:51:13;98799.31;;;5.01
74321;BMP280;62738;45.772;4.804;2023-02-26T11:56:22;98801.81;;;4.84
74321;BMP280;62738;45.772;4.804;2023-02-26T11:58:52;98823.38;;;5.16
74321;BMP280;62738;45.772;4.804;2023-02-26T12:01:26;98826.50;;;4.76
74321;BMP280;62738;45.772;4.804;2023-02-26T12:03:57;98800.75;;;4.94
74321;BMP280;62738;45.772;4.804;2023-02-26T12:06:24;98805.13;;;4.90
74321;BMP280;62738;45.772;4.804;2023-02-26T12:08:51;98800.91;;;4.89
74321;BMP280;62738;45.772;4.804;2023-02-26T12:14:44;98801.13;;;4.99
74321;BMP280;62738;45.772;4.804;2023-02-26T12:25:24;98804.34;;;5.33
74321;BMP280;62738;45.772;4.804;2023-02-26T12:28:00;98767.88;;;5.17
74321;BMP280;62738;45.772;4.804;2023-02-26T12:30:48;98783.22;;;5.05
74321;BMP280;62738;45.772;4.804;2023-02-26T12:33:26;98789.28;;;5.26
74321;BMP280;62738;45.772;4.804;2023-02-26T12:42:21;98785.66;;;5.24
74321;BMP280;62738;45.772;4.804;2023-02-26T13:21:04;98759.03;;;5.11
74321;BMP280;62738;45.772;4.804;2023-02-26T13:23:50;98784.38;;;5.25
74321;BMP280;62738;45.772;4.804;2023-02-26T13:26:18;98758.34;;;5.26
74321;BMP280;62738;45.772;4.804;2023-02-26T13:31:15;98758.38;;;5.41
74321;BMP280;62738;45.772;4.804;2023-02-26T13:33:44;98751.00;;;5.21
74321;BMP280;62738;45.772;4.804;2023-02-26T13:36:14;98747.91;;;5.32
74321;BMP280;62738;45.772;4.804;2023-02-26T13:44:57;98760.72;;;5.22
74321;BMP280;62738;45.772;4.804;2023-02-26T13:50:29;98766.00;;;5.20
74321;BMP280;62738;45.772;4.804;2023-02-26T13:59:02;98720.63;;;5.49
74321;BMP280;62738;45.772;4.804;2023-02-26T14:01:34;98764.78;;;5.44
74321;BMP280;62738;45.772;4.804;2023-02-26T14:06:59;98752.69;;;5.77
74321;BMP280;62738;45.772;4.804;2023-02-26T14:09:35;98775.25;;;5.60
74321;BMP280;62738;45.772;4.804;2023-02-26T14:12:03;98755.06;;;5.58
74321;BMP280;62738;45.772;4.804;2023-02-26T14:14:39;98763.31;;;5.81
74321;BMP280;62738;45.772;4.804;2023-02-26T14:22:19;98756.81;;;5.10
74321;BMP280;62738;45.772;4.804;2023-02-26T14:24:54;98756.88;;;5.33
74321;BMP280;62738;45.772;4.804;2023-02-26T14:27:30;98731.53;;;5.11
74321;BMP280;62738;45.772;4.804;2023-02-26T14:35:28;98734.09;;;5.09
74321;BMP280;62738;45.772;4.804;2023-02-26T14:38:00;98759.25;;;5.28
74321;BMP280;62738;45.772;4.804;2023-02-26T14:40:31;98754.81;;;5.10
74321;BMP280;62738;45.772;4.804;2023-02-26T14:43:02;98741.44;;;5.07
74321;BMP280;62738;45.772;4.804;2023-02-26T14:45:41;98777.00;;;5.20
74321;BMP280;62738;45.772;4.804;2023-02-26T14:48:14;98774.72;;;4.96
74321;BMP280;62738;45.772;4.804;2023-02-26T14:59:39;98734.88;;;5.25
74321;BMP280;62738;45.772;4.804;2023-02-26T15:02:24;98755.00;;;5.12
74321;BMP280;62738;45.772;4.804;2023-02-26T15:08:20;98737.38;;;5.00
74321;BMP280;62738;45.772;4.804;2023-02-26T15:11:23;98771.88;;;5.09
74321;BMP280;62738;45.772;4.804;2023-02-26T15:14:05;98722.72;;;4.98
74321;BMP280;62738;45.772;4.804;2023-02-26T15:19:41;98738.66;;;4.91
74321;BMP280;62738;45.772;4.804;2023-02-26T15:24:46;98754.59;;;5.01
74321;BMP280;62738;45.772;4.804;2023-02-26T15:27:16;98760.50;;;5.20
74321;BMP280;62738;45.772;4.804;2023-02-26T15:29:45;98778.69;;;5.23
74321;BMP280;62738;45.772;4.804;2023-02-26T15:34:58;98757.13;;;4.83
74321;BMP280;62738;45.772;4.804;2023-02-26T15:37:28;98782.59;;;4.84
74321;BMP280;62738;45.772;4.804;2023-02-26T15:39:59;98755.59;;;4.67
74321;BMP280;62738;45.772;4.804;2023-02-26T15:42:33;98763.00;;;4.95
74321;BMP280;62738;45.772;4.804;2023-02-26T15:45:05;98767.34;;;4.75
74321;BMP280;62738;45.772;4.804;2023-02-26T15:47:34;98748.28;;;4.70
74321;BMP280;62738;45.772;4.804;2023-02-26T15:50:01;98733.38;;;4.50
74321;BMP280;62738;45.772;4.804;2023-02-26T15:52:28;98780.06;;;4.50
74321;BMP280;62738;45.772;4.804;2023-02-26T15:54:58;98754.38;;;4.83
74321;BMP280;62738;45.772;4.804;2023-02-26T15:57:26;98758.19;;;4.73
74321;BMP280;62738;45.772;4.804;2023-02-26T16:00:00;98748.00;;;4.96
74321;BMP280;62738;45.772;4.804;2023-02-26T16:02:32;98751.53;;;5.12
74321;BMP280;62738;45.772;4.804;2023-02-26T16:05:01;98751.34;;;5.10
74321;BMP280;62738;45.772;4.804;2023-02-26T16:07:28;98784.38;;;4.74
74321;BMP280;62738;45.772;4.804;2023-02-26T16:09:56;98814.00;;;4.68
74321;BMP280;62738;45.772;4.804;2023-02-26T16:12:34;98797.34;;;4.37
74321;BMP280;62738;45.772;4.804;2023-02-26T16:15:05;98763.19;;;4.46
74321;BMP280;62738;45.772;4.804;2023-02-26T16:17:37;98764.50;;;4.52
74321;BMP280;62738;45.772;4.804;2023-02-26T16:20:11;98784.09;;;4.56
74321;BMP280;62738;45.772;4.804;2023-02-26T16:22:45;98801.50;;;4.59
74321;BMP280;62738;45.772;4.804;2023-02-26T16:25:35;98795.41;;;4.45
74321;BMP280;62738;45.772;4.804;2023-02-26T16:28:19;98778.38;;;4.47
74321;BMP280;62738;45.772;4.804;2023-02-26T16:30:51;98783.59;;;4.37
74321;BMP280;62738;45.772;4.804;2023-02-26T16:33:23;98804.31;;;4.38
74321;BMP280;62738;45.772;4.804;2023-02-26T16:38:26;98803.72;;;4.32
74321;BMP280;62738;45.772;4.804;2023-02-26T16:40:59;98815.16;;;4.44
74321;BMP280;62738;45.772;4.804;2023-02-26T16:49:28;98827.25;;;3.99
74321;BMP280;62738;45.772;4.804;2023-02-26T16:51:56;98839.59;;;3.85
74321;BMP280;62738;45.772;4.804;2023-02-26T16:54:34;98805.50;;;4.01
74321;BMP280;62738;45.772;4.804;2023-02-26T16:57:12;98819.94;;;3.94
74321;BMP280;62738;45.772;4.804;2023-02-26T16:59:39;98830.88;;;4.15
74321;BMP280;62738;45.772;4.804;2023-02-26T17:02:15;98824.66;;;4.14
74321;BMP280;62738;45.772;4.804;2023-02-26T17:04:46;98850.56;;;3.85
74321;BMP280;62738;45.772;4.804;2023-02-26T17:07:24;98831.44;;;3.93
74321;BMP280;62738;45.772;4.804;2023-02-26T17:09:55;98814.97;;;3.93
74321;BMP280;62738;45.772;4.804;2023-02-26T17:12:42;98811.69;;;3.94
74321;BMP280;62738;45.772;4.804;2023-02-26T17:15:36;98815.16;;;4.15
74321;BMP280;62738;45.772;4.804;2023-02-26T17:18:04;98859.78;;;3.95
74321;BMP280;62738;45.772;4.804;2023-02-26T17:20:31;98831.75;;;3.89
74321;BMP280;62738;45.772;4.804;2023-02-26T17:22:59;98811.22;;;3.82
74321;BMP280;62738;45.772;4.804;2023-02-26T17:25:34;98846.47;;;3.78
74321;BMP280;62738;45.772;4.804;2023-02-26T17:28:01;98818.28;;;3.78
74321;BMP280;62738;45.772;4.804;2023-02-26T17:30:28;98823.38;;;3.74
74321;BMP280;62738;45.772;4.804;2023-02-26T17:32:59;98839.16;;;3.81
74321;BMP280;62738;45.772;4.804;2023-02-26T17:35:26;98821.03;;;3.78
74321;BMP280;62738;45.772;4.804;2023-02-26T17:37:54;98825.66;;;3.83
74321;BMP280;62738;45.772;4.804;2023-02-26T17:40:26;98825.00;;;3.90